Time;durP1;ratioP1;P1;durP2;ratioP2;P2;SDS_P1;SDS_P2;PMS_P1;PMS_P2;Temp;Humidity;BMP_temperature;BMP_pressure;BME280_temperature;BME280_humidity;BME280_pressure;Samples;Min_cycle;Max_cycle;Signal;HPM_P1;HPM_P2
2022/09/22 00:07:52;;;;;;;9.40;2.45;;;;;;;6.93;100.00;101112.69;20729959;28;20196;-75
2022/09/22 00:17:53;;;;;;;9.23;2.38;;;;;;;6.77;100.00;101113.41;20728588;28;20496;-76
2022/09/22 00:27:55;;;;;;;5.65;2.58;;;;;;;6.78;100.00;101109.06;20729532;28;20061;-77
2022/09/22 00:37:56;;;;;;;8.65;2.70;;;;;;;6.62;100.00;101108.03;20727565;28;20049;-76
2022/09/22 00:47:59;;;;;;;7.20;3.17;;;;;;;6.67;100.00;101114.16;20728420;28;20735;-77
2022/09/22 00:58:00;;;;;;;7.15;2.75;;;;;;;6.54;100.00;101104.47;20726628;28;20501;-77
2022/09/22 01:08:01;;;;;;;7.80;2.80;;;;;;;6.40;100.00;101099.94;20725662;28;20140;-78
2022/09/22 01:18:03;;;;;;;7.75;2.80;;;;;;;6.46;100.00;101100.88;20727143;28;20479;-77
2022/09/22 01:28:04;;;;;;;6.68;2.90;;;;;;;6.38;100.00;101106.88;20725156;28;20073;-77
2022/09/22 01:38:05;;;;;;;9.27;3.00;;;;;;;6.35;100.00;101101.63;20724123;28;20571;-76
2022/09/22 01:48:07;;;;;;;5.97;2.72;;;;;;;6.30;100.00;101100.69;20724029;28;20073;-74
2022/09/22 01:58:10;;;;;;;7.78;3.28;;;;;;;6.25;100.00;101091.97;20723905;28;20112;-74
2022/09/22 02:08:11;;;;;;;5.43;2.90;;;;;;;6.14;100.00;101093.56;20719731;28;20109;-74
2022/09/22 02:18:12;;;;;;;5.38;2.72;;;;;;;5.89;100.00;101093.19;20723209;28;20490;-74
2022/09/22 02:28:13;;;;;;;8.32;3.38;;;;;;;5.81;100.00;101084.41;20722272;28;20694;-75
2022/09/22 02:38:15;;;;;;;5.75;3.05;;;;;;;5.69;100.00;101075.53;20729265;28;20049;-77
2022/09/22 02:48:16;;;;;;;9.32;3.10;;;;;;;5.56;100.00;101082.28;20735493;28;20145;-76
2022/09/22 02:58:17;;;;;;;9.85;3.53;;;;;;;5.52;100.00;101075.28;20734928;28;20077;-76
2022/09/22 03:08:18;;;;;;;9.18;3.55;;;;;;;5.59;100.00;101074.53;20734022;28;20088;-76
2022/09/22 03:18:20;;;;;;;6.97;3.40;;;;;;;5.56;100.00;101064.09;20734642;28;20058;-78
2022/09/22 03:28:21;;;;;;;8.10;3.47;;;;;;;5.51;100.00;101063.13;20736472;28;20494;-78
2022/09/22 03:38:22;;;;;;;7.25;3.60;;;;;;;5.58;100.00;101065.00;20732521;28;20185;-76
2022/09/22 03:48:24;;;;;;;8.38;3.72;;;;;;;5.60;100.00;101066.75;20729736;28;20385;-76
2022/09/22 03:58:25;;;;;;;7.32;3.97;;;;;;;5.64;100.00;101063.34;20730119;28;20153;-77
2022/09/22 04:08:26;;;;;;;6.85;3.55;;;;;;;5.61;100.00;101059.84;20730272;28;20081;-78
2022/09/22 04:18:28;;;;;;;9.40;3.58;;;;;;;5.55;100.00;101060.59;20730278;28;20584;-77
2022/09/22 04:28:29;;;;;;;10.95;4.13;;;;;;;5.57;100.00;101052.84;20728790;28;20053;-76
2022/09/22 04:38:30;;;;;;;8.23;3.85;;;;;;;5.46;100.00;101049.19;20726094;28;20137;-76
2022/09/22 04:48:32;;;;;;;8.25;4.22;;;;;;;5.39;100.00;101051.72;20727232;28;20045;-77
2022/09/22 04:58:33;;;;;;;8.35;4.15;;;;;;;5.45;100.00;101057.84;20725438;28;20241;-77
2022/09/22 05:08:34;;;;;;;8.48;4.00;;;;;;;5.36;100.00;101064.63;20721861;28;20289;-77
2022/09/22 05:18:36;;;;;;;10.05;4.57;;;;;;;5.33;100.00;101077.59;20725817;28;20084;-77
2022/09/22 05:28:37;;;;;;;8.98;4.50;;;;;;;5.36;100.00;101076.75;20727928;28;20495;-77
2022/09/22 05:38:38;;;;;;;10.98;5.00;;;;;;;5.55;100.00;101075.31;20724642;28;20093;-77
2022/09/22 05:48:39;;;;;;;8.93;4.55;;;;;;;5.60;100.00;101068.47;20723730;28;20057;-75
2022/09/22 05:58:41;;;;;;;12.30;4.80;;;;;;;5.80;100.00;101077.47;20723881;28;20081;-75
2022/09/22 06:08:42;;;;;;;9.52;4.80;;;;;;;5.99;100.00;101073.44;20724741;28;20049;-75
2022/09/22 06:18:49;;;;;;;10.50;5.30;;;;;;;6.28;100.00;101081.59;20740724;28;20519;-77
2022/09/22 06:28:50;;;;;;;10.57;5.40;;;;;;;6.67;100.00;101082.94;20739425;28;20080;-77
2022/09/22 06:38:53;;;;;;;12.93;5.45;;;;;;;6.97;100.00;101078.91;20738369;28;20488;-78
2022/09/22 06:48:57;;;;;;;14.50;4.82;;;;;;;7.35;100.00;101072.31;20728337;28;20133;-78
2022/09/22 06:58:58;;;;;;;9.27;4.97;;;;;;;7.91;100.00;101079.66;20695006;28;20630;-78
2022/09/22 07:09:11;;;;;;;8.02;4.45;;;;;;;8.25;100.00;101069.41;20693631;28;20333;-78
2022/09/22 07:19:13;;;;;;;9.80;4.82;;;;;;;8.52;100.00;101062.56;20722841;28;20074;-82
2022/09/22 07:29:16;;;;;;;8.43;4.35;;;;;;;8.82;100.00;101052.22;20747458;28;20053;-80
2022/09/22 07:39:17;;;;;;;10.27;3.80;;;;;;;9.08;100.00;101048.75;20733709;28;20053;-79
2022/09/22 07:49:21;;;;;;;8.23;4.13;;;;;;;9.42;100.00;101047.03;20744724;28;20062;-81
2022/09/22 07:59:22;;;;;;;8.45;4.45;;;;;;;9.59;100.00;101054.88;20748416;28;20050;-76
2022/09/22 08:09:23;;;;;;;10.90;4.40;;;;;;;9.87;100.00;101053.94;20740367;28;20050;-78
2022/09/22 08:19:25;;;;;;;7.18;3.70;;;;;;;10.19;100.00;101045.97;20733795;28;20426;-78
2022/09/22 08:29:26;;;;;;;6.38;3.67;;;;;;;10.62;100.00;101039.69;20741184;28;20457;-76
2022/09/22 08:39:29;;;;;;;5.82;3.25;;;;;;;11.13;100.00;101027.13;20747433;28;20485;-78
2022/09/22 08:59:50;;;;;;;7.07;3.38;;;;;;;11.81;100.00;101023.00;20737912;28;20045;-78
2022/09/22 09:09:52;;;;;;;9.27;2.65;;;;;;;12.20;100.00;101011.19;20726354;28;20081;-78
2022/09/22 09:19:53;;;;;;;6.57;2.53;;;;;;;12.59;98.91;101015.03;20724955;28;20050;-77
2022/09/22 09:29:55;;;;;;;6.00;2.65;;;;;;;13.00;94.72;101015.31;20724891;28;20459;-79
2022/09/22 09:39:56;;;;;;;4.50;2.20;;;;;;;13.55;88.61;100994.22;20724448;28;20136;-80
2022/09/22 09:49:58;;;;;;;5.88;2.30;;;;;;;13.78;86.87;101012.22;20734342;28;20060;-80
2022/09/22 10:10:30;;;;;;;4.50;2.20;;;;;;;14.63;82.39;100983.25;20726856;28;20093;-79
2022/09/22 10:20:32;;;;;;;4.57;1.58;;;;;;;15.00;81.81;100966.56;20738655;28;20140;-78
2022/09/22 10:30:36;;;;;;;5.50;1.50;;;;;;;15.19;76.18;100956.41;20739000;28;20049;-77
2022/09/22 10:40:38;;;;;;;3.30;1.50;;;;;;;15.46;76.04;100949.50;20736910;28;20129;-77
2022/09/22 10:50:40;;;;;;;4.80;1.50;;;;;;;15.54;76.40;100941.41;20738171;28;20050;-79
2022/09/22 11:00:41;;;;;;;4.78;1.23;;;;;;;15.69;57.03;100929.56;20734658;28;20046;-78
2022/09/22 11:21:02;;;;;;;5.03;1.38;;;;;;;16.11;53.88;100927.47;20734484;28;20065;-76
2022/09/22 11:31:04;;;;;;;3.40;1.30;;;;;;;16.29;54.64;100902.22;20733061;28;20544;-78
2022/09/22 11:41:05;;;;;;;6.22;1.15;;;;;;;16.45;50.83;100892.91;20731655;28;20561;-75
2022/09/22 11:51:07;;;;;;;1.80;0.93;;;;;;;16.64;49.86;100886.13;20731651;28;20457;-76
2022/09/22 12:01:09;;;;;;;2.55;0.80;;;;;;;16.52;51.25;100875.94;20729652;28;20581;-77
2022/09/22 12:11:13;;;;;;;;;;;;;;;16.74;50.79;100869.97;20725976;28;20144;-78
2022/09/22 12:21:15;;;;;;;1.75;0.80;;;;;;;16.82;50.81;100863.53;20730097;28;19968;-77
2022/09/22 12:31:17;;;;;;;3.60;1.00;;;;;;;17.09;48.29;100843.16;20729317;28;20050;-76
2022/09/22 12:41:20;;;;;;;2.83;1.00;;;;;;;17.04;49.13;100846.91;20728630;28;20049;-76
2022/09/22 12:51:21;;;;;;;2.00;0.77;;;;;;;16.79;48.72;100831.03;20727384;28;20058;-76
2022/09/22 13:01:24;;;;;;;2.63;0.90;;;;;;;17.02;49.79;100822.28;20725704;28;20438;-75
2022/09/22 13:11:25;;;;;;;2.55;1.15;;;;;;;16.92;46.15;100819.97;20726100;28;20572;-78
2022/09/22 13:21:27;;;;;;;3.22;0.93;;;;;;;16.89;47.81;100808.63;20724037;28;20205;-78
2022/09/22 13:31:28;;;;;;;2.75;1.00;;;;;;;17.25;45.64;100802.91;20724301;28;20049;-76
2022/09/22 13:41:29;;;;;;;4.57;1.00;;;;;;;17.36;45.92;100793.66;20723570;28;20493;-77
2022/09/22 13:51:30;;;;;;;5.05;1.10;;;;;;;17.38;48.69;100783.00;20724698;28;20566;-76
2022/09/22 14:01:32;;;;;;;3.10;1.05;;;;;;;17.20;47.75;100771.34;20722607;28;20070;-76
2022/09/22 14:11:34;;;;;;;2.53;0.95;;;;;;;17.27;49.21;100764.03;20722435;28;20053;-76
2022/09/22 14:21:35;;;;;;;4.13;1.20;;;;;;;17.45;48.23;100752.75;20721758;28;20054;-76
2022/09/22 14:31:36;;;;;;;6.32;1.23;;;;;;;17.52;48.17;100743.63;20726774;28;20124;-78
2022/09/22 14:41:38;;;;;;;4.10;1.20;;;;;;;17.73;48.04;100738.44;20744065;28;20057;-78
2022/09/22 14:51:39;;;;;;;2.63;1.00;;;;;;;17.11;50.34;100722.28;20753903;28;20109;-77
2022/09/22 15:12:01;;;;;;;3.42;1.00;;;;;;;17.42;47.81;100705.22;20734748;28;20093;-78
2022/09/22 15:22:05;;;;;;;2.58;1.10;;;;;;;17.41;48.45;100708.78;20733906;28;20053;-80
2022/09/22 15:32:06;;;;;;;4.10;1.33;;;;;;;17.10;50.40;100698.50;20732862;28;20049;-78
2022/09/22 15:42:10;;;;;;;2.53;1.13;;;;;;;17.13;49.04;100691.31;20728598;28;20080;-77
2022/09/22 15:52:11;;;;;;;3.42;1.02;;;;;;;17.07;50.08;100683.63;20726909;28;20108;-81
2022/09/22 16:02:12;;;;;;;3.88;1.40;;;;;;;17.13;50.43;100686.03;20726813;28;20486;-78
2022/09/22 16:12:14;;;;;;;3.75;1.65;;;;;;;16.99;51.91;100668.97;20724284;28;20313;-77
2022/09/22 16:22:16;;;;;;;3.38;1.20;;;;;;;16.77;51.91;100668.88;20724340;28;20084;-78
2022/09/22 16:32:17;;;;;;;6.65;2.10;;;;;;;16.86;51.55;100657.97;20720906;28;20100;-79
2022/09/22 16:42:20;;;;;;;5.18;1.50;;;;;;;16.54;53.15;100665.28;20720988;28;20054;-78
2022/09/22 16:52:30;;;;;;;5.40;1.97;;;;;;;16.15;54.65;100671.06;20750021;28;20050;-78
2022/09/22 17:02:32;;;;;;;4.40;2.03;;;;;;;16.03;55.41;100670.59;20720430;28;20601;-75
2022/09/22 17:12:34;;;;;;;5.03;2.17;;;;;;;15.65;58.01;100670.94;20720417;28;20462;-80
2022/09/22 17:22:35;;;;;;;6.05;1.33;;;;;;;15.07;63.96;100661.31;20721138;28;20137;-76
2022/09/22 17:32:37;;;;;;;4.97;1.58;;;;;;;14.34;68.96;100674.78;20719952;28;20104;-78
2022/09/22 17:42:38;;;;;;;3.67;1.83;;;;;;;14.03;69.53;100675.56;20716872;28;20522;-81
2022/09/22 18:03:01;;;;;;;5.25;1.80;;;;;;;13.44;74.14;100687.56;20716251;28;20129;-78
2022/09/22 18:13:03;;;;;;;5.43;2.03;;;;;;;13.23;75.15;100683.66;20732840;28;20494;-76
2022/09/22 18:23:04;;;;;;;7.53;4.10;;;;;;;13.02;76.60;100677.91;20734809;28;20058;-77
2022/09/22 18:33:06;;;;;;;9.73;4.15;;;;;;;12.87;76.88;100680.88;20733041;28;20050;-77
2022/09/22 18:43:09;;;;;;;5.50;2.17;;;;;;;12.66;79.24;100689.19;20733163;28;20054;-77
2022/09/22 18:53:10;;;;;;;7.53;2.40;;;;;;;12.38;82.74;100696.72;20730113;28;20061;-80
2022/09/22 19:03:12;;;;;;;4.32;2.10;;;;;;;12.01;87.32;100706.09;20733069;28;20069;-77
2022/09/22 19:13:15;;;;;;;4.63;2.40;;;;;;;11.82;88.58;100702.06;20729816;28;20482;-79
2022/09/22 19:23:17;;;;;;;6.13;2.35;;;;;;;11.60;91.38;100705.88;20727025;28;20341;-77
2022/09/22 19:33:18;;;;;;;6.47;2.53;;;;;;;11.36;96.80;100707.97;20726702;28;20148;-80
2022/09/22 19:43:21;;;;;;;7.22;2.83;;;;;;;11.26;98.96;100701.13;20723918;28;20103;-78
2022/09/22 19:53:23;;;;;;;6.10;3.05;;;;;;;11.03;100.00;100710.16;20725634;28;20054;-79
2022/09/22 20:03:25;;;;;;;6.38;2.85;;;;;;;10.97;100.00;100707.63;20726640;28;20082;-79
2022/09/22 20:23:46;;;;;;;9.95;3.72;;;;;;;10.39;100.00;100696.91;20725127;28;20490;-79
2022/09/22 20:33:48;;;;;;;6.28;3.30;;;;;;;10.21;100.00;100682.25;20709547;28;20081;-77
2022/09/22 20:43:49;;;;;;;6.72;3.95;;;;;;;10.05;100.00;100678.88;20722361;28;20054;-79
2022/09/22 20:53:50;;;;;;;9.98;3.65;;;;;;;9.92;100.00;100675.53;20718542;28;20140;-78
2022/09/22 21:03:52;;;;;;;6.93;3.80;;;;;;;9.89;100.00;100683.38;20715303;28;20057;-74
2022/09/22 21:13:54;;;;;;;7.88;4.85;;;;;;;9.76;100.00;100661.69;20720043;28;20488;-74
2022/09/22 21:23:56;;;;;;;12.00;6.00;;;;;;;9.58;100.00;100668.81;20721914;28;20441;-74
2022/09/22 21:33:57;;;;;;;13.70;6.50;;;;;;;9.54;100.00;100659.28;20718842;28;20141;-74
2022/09/22 21:43:58;;;;;;;10.35;4.97;;;;;;;9.61;100.00;100648.75;20718063;28;20054;-73
2022/09/22 21:54:01;;;;;;;10.93;4.30;;;;;;;9.64;100.00;100646.13;20719867;28;20064;-74
2022/09/22 22:04:06;;;;;;;13.38;5.47;;;;;;;9.61;100.00;100646.13;20720518;28;20058;-75
2022/09/22 22:14:08;;;;;;;;;;;;;;;9.60;100.00;100635.69;20722374;28;20104;-74
2022/09/22 22:24:30;;;;;;;8.90;3.60;;;;;;;9.50;100.00;100625.31;20722668;28;19961;-74
2022/09/22 22:34:32;;;;;;;7.15;3.70;;;;;;;9.34;100.00;100625.41;20721923;28;20548;-73
2022/09/22 22:44:33;;;;;;;7.07;4.25;;;;;;;9.05;100.00;100626.47;20721722;28;20422;-75
2022/09/22 22:54:35;;;;;;;9.57;4.80;;;;;;;8.93;100.00;100616.97;20727740;28;20081;-74
2022/09/22 23:04:36;;;;;;;9.25;4.68;;;;;;;8.73;100.00;100631.88;20731312;28;20426;-74
2022/09/22 23:14:38;;;;;;;9.85;5.28;;;;;;;8.50;100.00;100618.06;20733802;28;20102;-75
2022/09/22 23:24:39;;;;;;;10.75;4.90;;;;;;;8.30;100.00;100624.19;20732787;28;20080;-75
2022/09/22 23:34:40;;;;;;;9.13;4.78;;;;;;;8.20;100.00;100609.44;20733126;28;20127;-76
2022/09/22 23:44:42;;;;;;;7.05;4.55;;;;;;;8.06;100.00;100612.06;20731584;28;20088;-75
2022/09/22 23:54:43;;;;;;;8.45;4.20;;;;;;;7.87;100.00;100607.75;20730843;28;20053;-74
